sensor_id;sensor_type;location;lat;lon;timestamp;P1;durP1;ratioP1;P2;durP2;ratioP2
63114;SDS011;49208;50.874;6.466;2023-02-26T07:02:21;3.92;;;1.83;;
63114;SDS011;49208;50.874;6.466;2023-02-26T07:04:47;6.20;;;2.23;;
63114;SDS011;49208;50.874;6.466;2023-02-26T07:07:13;6.10;;;2.05;;
63114;SDS011;49208;50.874;6.466;2023-02-26T07:09:38;6.53;;;2.55;;
63114;SDS011;49208;50.874;6.466;2023-02-26T07:12:04;4.13;;;2.28;;
63114;SDS011;49208;50.874;6.466;2023-02-26T07:14:31;5.63;;;2.30;;
63114;SDS011;49208;50.874;6.466;2023-02-26T07:16:57;3.95;;;2.00;;
63114;SDS011;49208;50.874;6.466;2023-02-26T07:19:22;5.45;;;2.53;;
63114;SDS011;49208;50.874;6.466;2023-02-26T07:21:47;8.38;;;2.20;;
63114;SDS011;49208;50.874;6.466;2023-02-26T07:24:13;3.83;;;2.50;;
63114;SDS011;49208;50.874;6.466;2023-02-26T07:26:38;5.97;;;2.40;;
63114;SDS011;49208;50.874;6.466;2023-02-26T07:29:04;7.10;;;2.10;;
63114;SDS011;49208;50.874;6.466;2023-02-26T07:31:29;4.63;;;2.28;;
63114;SDS011;49208;50.874;6.466;2023-02-26T07:33:55;5.35;;;1.70;;
63114;SDS011;49208;50.874;6.466;2023-02-26T07:36:21;6.53;;;1.80;;
63114;SDS011;49208;50.874;6.466;2023-02-26T07:38:46;7.15;;;1.80;;
63114;SDS011;49208;50.874;6.466;2023-02-26T07:41:11;3.90;;;1.33;;
63114;SDS011;49208;50.874;6.466;2023-02-26T07:43:37;3.30;;;1.50;;
63114;SDS011;49208;50.874;6.466;2023-02-26T07:46:02;3.45;;;1.52;;
63114;SDS011;49208;50.874;6.466;2023-02-26T07:48:28;4.55;;;1.55;;
63114;SDS011;49208;50.874;6.466;2023-02-26T07:50:53;4.18;;;1.60;;
63114;SDS011;49208;50.874;6.466;2023-02-26T07:53:19;2.88;;;1.35;;
63114;SDS011;49208;50.874;6.466;2023-02-26T07:55:45;4.10;;;1.30;;
63114;SDS011;49208;50.874;6.466;2023-02-26T07:58:11;5.22;;;1.73;;
63114;SDS011;49208;50.874;6.466;2023-02-26T08:00:36;4.35;;;1.70;;
63114;SDS011;49208;50.874;6.466;2023-02-26T08:03:02;3.63;;;1.45;;
63114;SDS011;49208;50.874;6.466;2023-02-26T08:05:27;4.55;;;1.40;;
63114;SDS011;49208;50.874;6.466;2023-02-26T08:07:53;8.25;;;1.60;;
63114;SDS011;49208;50.874;6.466;2023-02-26T08:10:18;4.65;;;1.60;;
63114;SDS011;49208;50.874;6.466;2023-02-26T08:12:44;11.60;;;1.52;;
63114;SDS011;49208;50.874;6.466;2023-02-26T08:15:10;6.20;;;1.67;;
63114;SDS011;49208;50.874;6.466;2023-02-26T08:17:39;3.58;;;1.52;;
63114;SDS011;49208;50.874;6.466;2023-02-26T08:20:06;5.13;;;1.77;;
63114;SDS011;49208;50.874;6.466;2023-02-26T08:22:32;5.03;;;1.63;;
63114;SDS011;49208;50.874;6.466;2023-02-26T08:24:58;3.22;;;1.33;;
63114;SDS011;49208;50.874;6.466;2023-02-26T08:27:24;3.88;;;1.67;;
63114;SDS011;49208;50.874;6.466;2023-02-26T08:29:49;6.35;;;1.52;;
63114;SDS011;49208;50.874;6.466;2023-02-26T08:32:15;2.25;;;1.17;;
63114;SDS011;49208;50.874;6.466;2023-02-26T08:34:43;4.57;;;1.38;;
63114;SDS011;49208;50.874;6.466;2023-02-26T08:37:09;4.03;;;1.48;;
63114;SDS011;49208;50.874;6.466;2023-02-26T08:39:36;6.30;;;1.50;;
63114;SDS011;49208;50.874;6.466;2023-02-26T08:42:03;4.63;;;1.48;;
63114;SDS011;49208;50.874;6.466;2023-02-26T08:44:30;7.18;;;1.75;;
63114;SDS011;49208;50.874;6.466;2023-02-26T08:46:56;4.22;;;1.67;;
63114;SDS011;49208;50.874;6.466;2023-02-26T08:49:21;2.75;;;1.27;;
63114;SDS011;49208;50.874;6.466;2023-02-26T08:51:46;11.50;;;2.40;;
63114;SDS011;49208;50.874;6.466;2023-02-26T08:54:12;4.78;;;2.00;;
63114;SDS011;49208;50.874;6.466;2023-02-26T08:56:38;5.35;;;1.63;;
63114;SDS011;49208;50.874;6.466;2023-02-26T08:59:03;4.68;;;1.90;;
63114;SDS011;49208;50.874;6.466;2023-02-26T09:01:29;4.00;;;1.35;;
63114;SDS011;49208;50.874;6.466;2023-02-26T09:03:54;5.47;;;1.92;;
63114;SDS011;49208;50.874;6.466;2023-02-26T09:06:20;5.53;;;2.10;;
63114;SDS011;49208;50.874;6.466;2023-02-26T09:08:45;3.72;;;1.33;;
63114;SDS011;49208;50.874;6.466;2023-02-26T09:11:10;3.80;;;1.60;;
63114;SDS011;49208;50.874;6.466;2023-02-26T09:13:36;3.15;;;1.55;;
63114;SDS011;49208;50.874;6.466;2023-02-26T09:16:02;4.82;;;1.60;;
63114;SDS011;49208;50.874;6.466;2023-02-26T09:18:28;5.80;;;1.58;;
63114;SDS011;49208;50.874;6.466;2023-02-26T09:20:53;9.90;;;2.50;;
63114;SDS011;49208;50.874;6.466;2023-02-26T09:23:18;4.32;;;1.73;;
63114;SDS011;49208;50.874;6.466;2023-02-26T09:25:44;4.10;;;1.50;;
63114;SDS011;49208;50.874;6.466;2023-02-26T09:28:10;5.55;;;1.67;;
63114;SDS011;49208;50.874;6.466;2023-02-26T09:30:35;5.03;;;1.60;;
63114;SDS011;49208;50.874;6.466;2023-02-26T09:33:00;4.72;;;1.85;;
63114;SDS011;49208;50.874;6.466;2023-02-26T09:35:26;8.02;;;1.88;;
63114;SDS011;49208;50.874;6.466;2023-02-26T09:37:51;5.05;;;1.80;;
63114;SDS011;49208;50.874;6.466;2023-02-26T09:40:35;3.83;;;1.95;;
63114;SDS011;49208;50.874;6.466;2023-02-26T09:45:39;6.63;;;2.78;;
63114;SDS011;49208;50.874;6.466;2023-02-26T09:48:07;3.90;;;1.70;;
63114;SDS011;49208;50.874;6.466;2023-02-26T09:50:47;4.10;;;1.60;;
63114;SDS011;49208;50.874;6.466;2023-02-26T09:53:32;5.15;;;1.77;;
63114;SDS011;49208;50.874;6.466;2023-02-26T09:56:06;5.30;;;1.38;;
63114;SDS011;49208;50.874;6.466;2023-02-26T09:58:38;5.20;;;1.50;;
63114;SDS011;49208;50.874;6.466;2023-02-26T10:03:47;4.30;;;1.30;;
63114;SDS011;49208;50.874;6.466;2023-02-26T10:11:44;4.10;;;1.42;;
63114;SDS011;49208;50.874;6.466;2023-02-26T10:14:24;3.30;;;1.27;;
63114;SDS011;49208;50.874;6.466;2023-02-26T10:16:59;3.90;;;1.70;;
63114;SDS011;49208;50.874;6.466;2023-02-26T10:19:36;5.25;;;1.23;;
63114;SDS011;49208;50.874;6.466;2023-02-26T10:22:25;2.85;;;1.20;;
63114;SDS011;49208;50.874;6.466;2023-02-26T10:25:02;9.05;;;1.75;;
63114;SDS011;49208;50.874;6.466;2023-02-26T10:27:42;2.00;;;1.00;;
63114;SDS011;49208;50.874;6.466;2023-02-26T10:30:41;3.10;;;1.75;;
63114;SDS011;49208;50.874;6.466;2023-02-26T10:33:20;3.30;;;1.45;;
63114;SDS011;49208;50.874;6.466;2023-02-26T10:36:13;3.55;;;1.30;;
63114;SDS011;49208;50.874;6.466;2023-02-26T10:38:44;4.28;;;1.20;;
63114;SDS011;49208;50.874;6.466;2023-02-26T10:41:17;4.38;;;1.40;;
63114;SDS011;49208;50.874;6.466;2023-02-26T10:43:48;4.28;;;1.50;;
63114;SDS011;49208;50.874;6.466;2023-02-26T10:46:44;4.82;;;1.30;;
63114;SDS011;49208;50.874;6.466;2023-02-26T10:52:35;2.42;;;1.10;;
63114;SDS011;49208;50.874;6.466;2023-02-26T10:55:05;3.65;;;1.10;;
63114;SDS011;49208;50.874;6.466;2023-02-26T10:57:46;3.08;;;1.20;;
63114;SDS011;49208;50.874;6.466;2023-02-26T11:00:18;3.25;;;1.30;;
63114;SDS011;49208;50.874;6.466;2023-02-26T11:02:45;2.97;;;1.10;;
63114;SDS011;49208;50.874;6.466;2023-02-26T11:05:24;2.72;;;1.02;;
63114;SDS011;49208;50.874;6.466;2023-02-26T11:08:39;3.60;;;1.10;;
63114;SDS011;49208;50.874;6.466;2023-02-26T11:10:59;2.33;;;1.27;;
63114;SDS011;49208;50.874;6.466;2023-02-26T11:15:56;2.40;;;1.17;;
63114;SDS011;49208;50.874;6.466;2023-02-26T11:18:27;3.75;;;1.02;;
63114;SDS011;49208;50.874;6.466;2023-02-26T11:20:56;2.78;;;1.00;;
63114;SDS011;49208;50.874;6.466;2023-02-26T11:23:25;4.38;;;1.60;;
63114;SDS011;49208;50.874;6.466;2023-02-26T11:25:56;1.58;;;0.75;;
63114;SDS011;49208;50.874;6.466;2023-02-26T11:28:45;3.58;;;0.95;;
63114;SDS011;49208;50.874;6.466;2023-02-26T11:31:17;3.15;;;1.17;;
63114;SDS011;49208;50.874;6.466;2023-02-26T11:33:47;2.17;;;0.80;;
63114;SDS011;49208;50.874;6.466;2023-02-26T11:36:16;2.33;;;1.05;;
63114;SDS011;49208;50.874;6.466;2023-02-26T11:38:43;2.92;;;0.93;;
63114;SDS011;49208;50.874;6.466;2023-02-26T11:41:10;4.28;;;1.45;;
63114;SDS011;49208;50.874;6.466;2023-02-26T11:43:44;6.65;;;1.55;;
63114;SDS011;49208;50.874;6.466;2023-02-26T11:46:13;3.47;;;1.08;;
63114;SDS011;49208;50.874;6.466;2023-02-26T11:48:40;7.40;;;1.45;;
63114;SDS011;49208;50.874;6.466;2023-02-26T11:51:07;3.85;;;1.08;;
63114;SDS011;49208;50.874;6.466;2023-02-26T11:53:40;3.83;;;0.93;;
63114;SDS011;49208;50.874;6.466;2023-02-26T11:56:12;4.43;;;1.05;;
63114;SDS011;49208;50.874;6.466;2023-02-26T11:58:39;2.05;;;0.70;;
63114;SDS011;49208;50.874;6.466;2023-02-26T12:01:10;4.55;;;1.30;;
63114;SDS011;49208;50.874;6.466;2023-02-26T12:03:37;2.28;;;1.00;;
63114;SDS011;49208;50.874;6.466;2023-02-26T12:06:05;2.78;;;1.20;;
63114;SDS011;49208;50.874;6.466;2023-02-26T12:08:32;3.05;;;0.88;;
63114;SDS011;49208;50.874;6.466;2023-02-26T12:19:39;4.35;;;2.10;;
63114;SDS011;49208;50.874;6.466;2023-02-26T12:36:40;4.30;;;1.30;;
63114;SDS011;49208;50.874;6.466;2023-02-26T12:41:34;3.15;;;1.52;;
63114;SDS011;49208;50.874;6.466;2023-02-26T12:54:50;3.92;;;1.40;;
63114;SDS011;49208;50.874;6.466;2023-02-26T13:08:08;3.15;;;1.20;;
63114;SDS011;49208;50.874;6.466;2023-02-26T13:21:49;4.25;;;1.15;;
63114;SDS011;49208;50.874;6.466;2023-02-26T13:26:52;2.90;;;1.10;;
63114;SDS011;49208;50.874;6.466;2023-02-26T13:32:01;3.13;;;1.33;;
63114;SDS011;49208;50.874;6.466;2023-02-26T13:37:45;1.35;;;0.80;;
63114;SDS011;49208;50.874;6.466;2023-02-26T13:42:59;2.28;;;1.10;;
63114;SDS011;49208;50.874;6.466;2023-02-26T13:56:05;3.42;;;1.40;;
63114;SDS011;49208;50.874;6.466;2023-02-26T13:58:42;1.63;;;0.77;;
63114;SDS011;49208;50.874;6.466;2023-02-26T14:08:50;3.80;;;1.02;;
63114;SDS011;49208;50.874;6.466;2023-02-26T14:11:32;1.80;;;0.82;;
63114;SDS011;49208;50.874;6.466;2023-02-26T14:16:43;3.03;;;1.40;;
63114;SDS011;49208;50.874;6.466;2023-02-26T14:24:53;2.70;;;1.27;;
63114;SDS011;49208;50.874;6.466;2023-02-26T14:27:33;2.10;;;1.20;;
63114;SDS011;49208;50.874;6.466;2023-02-26T14:30:03;3.55;;;1.10;;
63114;SDS011;49208;50.874;6.466;2023-02-26T14:32:34;2.35;;;1.13;;
63114;SDS011;49208;50.874;6.466;2023-02-26T14:35:12;2.92;;;1.50;;
63114;SDS011;49208;50.874;6.466;2023-02-26T14:37:40;3.78;;;1.35;;
63114;SDS011;49208;50.874;6.466;2023-02-26T14:40:18;3.55;;;0.95;;
63114;SDS011;49208;50.874;6.466;2023-02-26T14:45:35;4.35;;;1.33;;
63114;SDS011;49208;50.874;6.466;2023-02-26T14:48:04;2.45;;;1.02;;
63114;SDS011;49208;50.874;6.466;2023-02-26T14:50:42;3.15;;;1.13;;
63114;SDS011;49208;50.874;6.466;2023-02-26T15:01:51;5.07;;;1.17;;
63114;SDS011;49208;50.874;6.466;2023-02-26T15:10:25;3.17;;;1.35;;
63114;SDS011;49208;50.874;6.466;2023-02-26T15:13:12;2.60;;;1.00;;
63114;SDS011;49208;50.874;6.466;2023-02-26T15:23:51;3.58;;;1.40;;
63114;SDS011;49208;50.874;6.466;2023-02-26T15:26:26;3.05;;;1.23;;
63114;SDS011;49208;50.874;6.466;2023-02-26T15:28:58;3.20;;;1.17;;
63114;SDS011;49208;50.874;6.466;2023-02-26T15:31:28;2.92;;;1.30;;
63114;SDS011;49208;50.874;6.466;2023-02-26T15:34:02;4.15;;;1.30;;
63114;SDS011;49208;50.874;6.466;2023-02-26T15:36:28;2.40;;;1.33;;
63114;SDS011;49208;50.874;6.466;2023-02-26T15:38:56;1.80;;;0.82;;
63114;SDS011;49208;50.874;6.466;2023-02-26T15:41:24;2.55;;;1.25;;
63114;SDS011;49208;50.874;6.466;2023-02-26T15:43:53;4.15;;;1.27;;
63114;SDS011;49208;50.874;6.466;2023-02-26T15:46:22;5.30;;;1.50;;
63114;SDS011;49208;50.874;6.466;2023-02-26T15:48:54;3.08;;;1.33;;
63114;SDS011;49208;50.874;6.466;2023-02-26T15:51:25;1.92;;;0.90;;
63114;SDS011;49208;50.874;6.466;2023-02-26T15:53:51;2.38;;;1.20;;
63114;SDS011;49208;50.874;6.466;2023-02-26T15:56:22;2.72;;;0.80;;
63114;SDS011;49208;50.874;6.466;2023-02-26T15:58:54;2.78;;;0.70;;
63114;SDS011;49208;50.874;6.466;2023-02-26T16:01:24;3.58;;;1.02;;
63114;SDS011;49208;50.874;6.466;2023-02-26T16:03:51;2.58;;;1.20;;
63114;SDS011;49208;50.874;6.466;2023-02-26T16:06:26;1.67;;;0.82;;
63114;SDS011;49208;50.874;6.466;2023-02-26T16:08:57;2.08;;;1.00;;
63114;SDS011;49208;50.874;6.466;2023-02-26T16:11:23;2.72;;;1.00;;
63114;SDS011;49208;50.874;6.466;2023-02-26T16:13:57;3.38;;;0.95;;
63114;SDS011;49208;50.874;6.466;2023-02-26T16:16:24;4.28;;;1.38;;
63114;SDS011;49208;50.874;6.466;2023-02-26T16:19:19;3.72;;;1.02;;
63114;SDS011;49208;50.874;6.466;2023-02-26T16:21:52;2.78;;;1.17;;
63114;SDS011;49208;50.874;6.466;2023-02-26T16:24:20;3.28;;;1.40;;
63114;SDS011;49208;50.874;6.466;2023-02-26T16:26:54;2.67;;;0.93;;
63114;SDS011;49208;50.874;6.466;2023-02-26T16:29:27;3.58;;;0.98;;
63114;SDS011;49208;50.874;6.466;2023-02-26T16:31:55;1.77;;;0.85;;
63114;SDS011;49208;50.874;6.466;2023-02-26T16:34:35;7.50;;;1.02;;
63114;SDS011;49208;50.874;6.466;2023-02-26T16:47:51;5.63;;;1.33;;
63114;SDS011;49208;50.874;6.466;2023-02-26T16:50:26;6.45;;;2.28;;
63114;SDS011;49208;50.874;6.466;2023-02-26T16:52:58;17.95;;;9.60;;
63114;SDS011;49208;50.874;6.466;2023-02-26T16:55:26;4.72;;;2.65;;
63114;SDS011;49208;50.874;6.466;2023-02-26T16:57:53;6.18;;;2.88;;
63114;SDS011;49208;50.874;6.466;2023-02-26T17:00:22;4.18;;;1.42;;
63114;SDS011;49208;50.874;6.466;2023-02-26T17:02:56;7.47;;;1.73;;
63114;SDS011;49208;50.874;6.466;2023-02-26T17:05:28;4.03;;;1.98;;
63114;SDS011;49208;50.874;6.466;2023-02-26T17:08:06;5.65;;;1.83;;
63114;SDS011;49208;50.874;6.466;2023-02-26T17:10:39;7.07;;;3.75;;
63114;SDS011;49208;50.874;6.466;2023-02-26T17:13:13;4.75;;;1.90;;
63114;SDS011;49208;50.874;6.466;2023-02-26T17:15:41;7.82;;;3.88;;
63114;SDS011;49208;50.874;6.466;2023-02-26T17:18:09;7.72;;;5.03;;
63114;SDS011;49208;50.874;6.466;2023-02-26T17:20:34;4.38;;;2.33;;
63114;SDS011;49208;50.874;6.466;2023-02-26T17:23:01;5.30;;;2.00;;
63114;SDS011;49208;50.874;6.466;2023-02-26T17:25:37;4.38;;;1.80;;
63114;SDS011;49208;50.874;6.466;2023-02-26T17:28:05;4.97;;;2.38;;
63114;SDS011;49208;50.874;6.466;2023-02-26T17:30:34;4.65;;;2.35;;
63114;SDS011;49208;50.874;6.466;2023-02-26T17:33:00;5.45;;;2.00;;
63114;SDS011;49208;50.874;6.466;2023-02-26T17:35:28;4.55;;;2.60;;
63114;SDS011;49208;50.874;6.466;2023-02-26T17:37:55;4.45;;;1.63;;
63114;SDS011;49208;50.874;6.466;2023-02-26T17:43:00;5.35;;;2.63;;
63114;SDS011;49208;50.874;6.466;2023-02-26T17:45:28;3.70;;;2.15;;
63114;SDS011;49208;50.874;6.466;2023-02-26T17:47:56;5.80;;;2.28;;
63114;SDS011;49208;50.874;6.466;2023-02-26T17:50:33;4.18;;;2.10;;
63114;SDS011;49208;50.874;6.466;2023-02-26T17:53:05;3.97;;;1.85;;
63114;SDS011;49208;50.874;6.466;2023-02-26T17:55:31;5.18;;;2.97;;
63114;SDS011;49208;50.874;6.466;2023-02-26T17:57:57;6.97;;;2.38;;
63114;SDS011;49208;50.874;6.466;2023-02-26T18:00:23;7.20;;;2.25;;
63114;SDS011;49208;50.874;6.466;2023-02-26T18:02:49;9.13;;;2.15;;
63114;SDS011;49208;50.874;6.466;2023-02-26T18:05:15;4.90;;;1.70;;
63114;SDS011;49208;50.874;6.466;2023-02-26T18:07:43;9.38;;;4.90;;
63114;SDS011;49208;50.874;6.466;2023-02-26T18:10:10;4.00;;;2.53;;
63114;SDS011;49208;50.874;6.466;2023-02-26T18:12:42;7.55;;;3.63;;
63114;SDS011;49208;50.874;6.466;2023-02-26T18:15:08;7.50;;;2.92;;
63114;SDS011;49208;50.874;6.466;2023-02-26T18:17:35;4.82;;;2.38;;
63114;SDS011;49208;50.874;6.466;2023-02-26T18:20:01;7.28;;;4.38;;
63114;SDS011;49208;50.874;6.466;2023-02-26T18:22:29;6.10;;;3.00;;
63114;SDS011;49208;50.874;6.466;2023-02-26T18:24:54;8.48;;;3.55;;
63114;SDS011;49208;50.874;6.466;2023-02-26T18:27:21;6.28;;;2.38;;
63114;SDS011;49208;50.874;6.466;2023-02-26T18:29:47;9.60;;;7.20;;
63114;SDS011;49208;50.874;6.466;2023-02-26T18:32:17;6.88;;;4.53;;
63114;SDS011;49208;50.874;6.466;2023-02-26T18:34:47;5.47;;;2.80;;
63114;SDS011;49208;50.874;6.466;2023-02-26T18:37:15;4.40;;;2.40;;
63114;SDS011;49208;50.874;6.466;2023-02-26T18:39:42;5.40;;;2.50;;
63114;SDS011;49208;50.874;6.466;2023-02-26T18:42:22;5.82;;;3.53;;
63114;SDS011;49208;50.874;6.466;2023-02-26T18:44:49;7.00;;;3.28;;
63114;SDS011;49208;50.874;6.466;2023-02-26T18:47:16;5.07;;;2.03;;
63114;SDS011;49208;50.874;6.466;2023-02-26T18:49:43;3.72;;;2.10;;
63114;SDS011;49208;50.874;6.466;2023-02-26T18:52:08;4.82;;;2.50;;
63114;SDS011;49208;50.874;6.466;2023-02-26T18:54:35;3.80;;;2.17;;
63114;SDS011;49208;50.874;6.466;2023-02-26T18:57:02;3.38;;;1.85;;
63114;SDS011;49208;50.874;6.466;2023-02-26T18:59:28;3.65;;;2.20;;
63114;SDS011;49208;50.874;6.466;2023-02-26T19:01:54;5.90;;;2.50;;
63114;SDS011;49208;50.874;6.466;2023-02-26T19:04:19;5.68;;;3.00;;
63114;SDS011;49208;50.874;6.466;2023-02-26T19:06:45;6.60;;;3.53;;
63114;SDS011;49208;50.874;6.466;2023-02-26T19:09:10;8.20;;;3.80;;
63114;SDS011;49208;50.874;6.466;2023-02-26T19:11:36;7.28;;;3.70;;
63114;SDS011;49208;50.874;6.466;2023-02-26T19:14:06;10.90;;;4.90;;
63114;SDS011;49208;50.874;6.466;2023-02-26T19:16:32;12.63;;;5.25;;
63114;SDS011;49208;50.874;6.466;2023-02-26T19:19:02;10.82;;;5.18;;
63114;SDS011;49208;50.874;6.466;2023-02-26T19:21:29;9.00;;;3.88;;
63114;SDS011;49208;50.874;6.466;2023-02-26T19:23:58;9.48;;;5.03;;
63114;SDS011;49208;50.874;6.466;2023-02-26T19:26:24;5.50;;;3.42;;
63114;SDS011;49208;50.874;6.466;2023-02-26T19:28:49;5.22;;;2.75;;
63114;SDS011;49208;50.874;6.466;2023-02-26T19:31:15;7.68;;;2.78;;
63114;SDS011;49208;50.874;6.466;2023-02-26T19:33:40;3.97;;;2.58;;
63114;SDS011;49208;50.874;6.466;2023-02-26T19:36:05;4.18;;;2.30;;
63114;SDS011;49208;50.874;6.466;2023-02-26T19:38:31;4.93;;;2.90;;
63114;SDS011;49208;50.874;6.466;2023-02-26T19:40:57;5.80;;;2.85;;
63114;SDS011;49208;50.874;6.466;2023-02-26T19:43:23;6.15;;;2.85;;
63114;SDS011;49208;50.874;6.466;2023-02-26T19:45:48;6.60;;;3.45;;
63114;SDS011;49208;50.874;6.466;2023-02-26T19:48:14;5.53;;;3.00;;
63114;SDS011;49208;50.874;6.466;2023-02-26T19:50:39;5.55;;;2.53;;
63114;SDS011;49208;50.874;6.466;2023-02-26T19:53:05;8.40;;;4.00;;
63114;SDS011;49208;50.874;6.466;2023-02-26T19:55:31;7.00;;;3.17;;
63114;SDS011;49208;50.874;6.466;2023-02-26T19:57:56;5.85;;;3.25;;
63114;SDS011;49208;50.874;6.466;2023-02-26T20:00:22;8.02;;;3.30;;
63114;SDS011;49208;50.874;6.466;2023-02-26T20:02:47;6.13;;;3.75;;
63114;SDS011;49208;50.874;6.466;2023-02-26T20:05:12;10.10;;;3.95;;
63114;SDS011;49208;50.874;6.466;2023-02-26T20:07:41;4.97;;;2.90;;
63114;SDS011;49208;50.874;6.466;2023-02-26T20:10:10;4.78;;;3.08;;
63114;SDS011;49208;50.874;6.466;2023-02-26T20:12:36;6.97;;;3.70;;
63114;SDS011;49208;50.874;6.466;2023-02-26T20:15:02;7.00;;;3.70;;
63114;SDS011;49208;50.874;6.466;2023-02-26T20:17:28;7.15;;;3.55;;
63114;SDS011;49208;50.874;6.466;2023-02-26T20:19:54;7.47;;;4.50;;
63114;SDS011;49208;50.874;6.466;2023-02-26T20:22:19;7.43;;;3.75;;
63114;SDS011;49208;50.874;6.466;2023-02-26T20:24:47;8.45;;;4.45;;
63114;SDS011;49208;50.874;6.466;2023-02-26T20:27:13;6.60;;;3.60;;
63114;SDS011;49208;50.874;6.466;2023-02-26T20:29:38;6.97;;;4.43;;
63114;SDS011;49208;50.874;6.466;2023-02-26T20:32:04;9.32;;;4.10;;
63114;SDS011;49208;50.874;6.466;2023-02-26T20:34:29;12.10;;;4.50;;
63114;SDS011;49208;50.874;6.466;2023-02-26T20:36:55;7.95;;;3.92;;
63114;SDS011;49208;50.874;6.466;2023-02-26T20:39:20;10.15;;;4.00;;
63114;SDS011;49208;50.874;6.466;2023-02-26T20:41:46;11.25;;;4.32;;
63114;SDS011;49208;50.874;6.466;2023-02-26T20:44:11;9.60;;;3.33;;
63114;SDS011;49208;50.874;6.466;2023-02-26T20:46:37;4.80;;;2.67;;
63114;SDS011;49208;50.874;6.466;2023-02-26T20:49:03;9.48;;;3.45;;
63114;SDS011;49208;50.874;6.466;2023-02-26T20:51:29;8.50;;;3.35;;
63114;SDS011;49208;50.874;6.466;2023-02-26T20:53:54;11.80;;;2.92;;
63114;SDS011;49208;50.874;6.466;2023-02-26T20:56:20;7.25;;;2.65;;
63114;SDS011;49208;50.874;6.466;2023-02-26T20:58:45;5.72;;;2.67;;
63114;SDS011;49208;50.874;6.466;2023-02-26T21:01:11;6.43;;;3.00;;
63114;SDS011;49208;50.874;6.466;2023-02-26T21:03:37;5.05;;;2.78;;
63114;SDS011;49208;50.874;6.466;2023-02-26T21:06:02;6.03;;;2.40;;
63114;SDS011;49208;50.874;6.466;2023-02-26T21:08:28;7.93;;;2.97;;
63114;SDS011;49208;50.874;6.466;2023-02-26T21:10:53;4.43;;;2.50;;
63114;SDS011;49208;50.874;6.466;2023-02-26T21:13:19;5.00;;;2.35;;
63114;SDS011;49208;50.874;6.466;2023-02-26T21:15:44;5.53;;;3.10;;
63114;SDS011;49208;50.874;6.466;2023-02-26T21:18:10;10.85;;;2.90;;
63114;SDS011;49208;50.874;6.466;2023-02-26T21:20:35;7.00;;;3.33;;
63114;SDS011;49208;50.874;6.466;2023-02-26T21:23:01;4.53;;;2.45;;
63114;SDS011;49208;50.874;6.466;2023-02-26T21:25:26;8.85;;;2.83;;
63114;SDS011;49208;50.874;6.466;2023-02-26T21:27:55;10.75;;;3.25;;
63114;SDS011;49208;50.874;6.466;2023-02-26T21:30:20;7.50;;;2.58;;
63114;SDS011;49208;50.874;6.466;2023-02-26T21:32:48;7.75;;;3.38;;
63114;SDS011;49208;50.874;6.466;2023-02-26T21:35:14;10.00;;;3.60;;
63114;SDS011;49208;50.874;6.466;2023-02-26T21:37:41;9.95;;;3.15;;
63114;SDS011;49208;50.874;6.466;2023-02-26T21:40:10;6.32;;;2.60;;
63114;SDS011;49208;50.874;6.466;2023-02-26T21:42:38;9.88;;;2.85;;
63114;SDS011;49208;50.874;6.466;2023-02-26T21:45:04;8.07;;;3.20;;
63114;SDS011;49208;50.874;6.466;2023-02-26T21:47:30;7.43;;;2.65;;
63114;SDS011;49208;50.874;6.466;2023-02-26T21:49:56;8.63;;;2.88;;
63114;SDS011;49208;50.874;6.466;2023-02-26T21:52:21;5.55;;;2.53;;
63114;SDS011;49208;50.874;6.466;2023-02-26T21:54:47;6.00;;;3.13;;
63114;SDS011;49208;50.874;6.466;2023-02-26T21:57:12;5.70;;;2.65;;
63114;SDS011;49208;50.874;6.466;2023-02-26T21:59:37;6.70;;;2.80;;
63114;SDS011;49208;50.874;6.466;2023-02-26T22:02:03;5.10;;;2.72;;
63114;SDS011;49208;50.874;6.466;2023-02-26T22:04:29;7.43;;;2.95;;
63114;SDS011;49208;50.874;6.466;2023-02-26T22:06:55;5.70;;;2.42;;
63114;SDS011;49208;50.874;6.466;2023-02-26T22:09:20;5.07;;;2.45;;
63114;SDS011;49208;50.874;6.466;2023-02-26T22:11:47;5.35;;;2.63;;
63114;SDS011;49208;50.874;6.466;2023-02-26T22:14:12;4.80;;;2.70;;
63114;SDS011;49208;50.874;6.466;2023-02-26T22:16:38;4.13;;;2.72;;
63114;SDS011;49208;50.874;6.466;2023-02-26T22:19:04;7.32;;;2.70;;
63114;SDS011;49208;50.874;6.466;2023-02-26T22:21:30;4.22;;;2.55;;
63114;SDS011;49208;50.874;6.466;2023-02-26T22:23:55;5.85;;;2.60;;
63114;SDS011;49208;50.874;6.466;2023-02-26T22:26:26;7.32;;;3.22;;
63114;SDS011;49208;50.874;6.466;2023-02-26T22:28:51;5.05;;;2.40;;
63114;SDS011;49208;50.874;6.466;2023-02-26T22:31:18;4.82;;;2.65;;
63114;SDS011;49208;50.874;6.466;2023-02-26T22:33:44;10.95;;;2.95;;
63114;SDS011;49208;50.874;6.466;2023-02-26T22:36:09;5.15;;;2.70;;
63114;SDS011;49208;50.874;6.466;2023-02-26T22:38:34;7.60;;;2.78;;
63114;SDS011;49208;50.874;6.466;2023-02-26T22:41:00;5.78;;;2.85;;
63114;SDS011;49208;50.874;6.466;2023-02-26T22:43:26;5.97;;;2.58;;
63114;SDS011;49208;50.874;6.466;2023-02-26T22:45:51;6.85;;;2.63;;
63114;SDS011;49208;50.874;6.466;2023-02-26T22:48:16;10.07;;;2.53;;
63114;SDS011;49208;50.874;6.466;2023-02-26T22:50:42;5.90;;;2.40;;
63114;SDS011;49208;50.874;6.466;2023-02-26T22:53:07;7.75;;;2.50;;
63114;SDS011;49208;50.874;6.466;2023-02-26T22:55:33;3.83;;;2.13;;
63114;SDS011;49208;50.874;6.466;2023-02-26T22:57:58;5.47;;;2.30;;
